Mariq — SVA2152 — position and weather

sailwx.info

Track history (hours):
 
Tides and Currents Weather Stations Pressure Air Temp Water Temp Dewpoint Dewpoint Depression Visibility Wind Speed Wind Dir Waves Ship Positions

Mariq

Last reported at 2015-May-28 00:33 UTC. Time now 2015-May-28 01:46 UTC.
Position N 37°17' E 025°52'.

Length 57 m.

Type: Tanker. MMSI: 239758424.

Date/timePositionNaut miles runAvg speedWind from/ knotsBaromVisibWave heightAir tempDewpointWater temp
2015-May-28 00:33N 37°17' E 025°52'9 9.1
2015-May-27 23:33N 37°18' E 025°41'9 9.3
2015-May-27 22:33N 37°19' E 025°29'9 9.0
2015-May-27 21:34N 37°19' E 025°18'9 9.3
2015-May-27 20:33N 37°20' E 025°06'10 9.5
2015-May-27 19:33N 37°21' E 024°54'8 0.4
2015-May-27 01:33N 37°23' E 024°45'1110.8
2015-May-27 00:33N 37°21' E 024°58'1110.6
2015-May-26 23:33N 37°21' E 025°11'1110.9
2015-May-26 22:33N 37°22' E 025°25'1110.6
2015-May-26 21:33N 37°22' E 025°38'1010.5
2015-May-26 20:33N 37°22' E 025°51'1010.2
2015-May-26 19:33N 37°23' E 026°04'12 0.4
2015-May-25 17:33N 37°11' E 026°06'10 9.9
2015-May-25 16:32N 37°06' E 025°55'10 9.7
2015-May-25 15:29N 37°01' E 025°44'9 9.6
2015-May-25 14:32N 36°56' E 025°34'6 0.6
2015-May-25 04:20N 36°53' E 025°28'7 8.9
2015-May-25 03:33N 36°54' E 025°19'27 8.5
2015-May-25 00:21N 37°02' E 024°46'45 8.9
2015-May-24 19:15N 37°35' E 024°08'37 1.5
2015-May-23 19:03N 37°02' E 024°28'610.3
2015-May-23 18:30N 36°57' E 024°32'44 1.2
2015-May-22 04:24N 37°37' E 024°08'31 9.8
2015-May-22 01:12N 37°24' E 024°44'610.1
2015-May-22 00:34N 37°22' E 024°51'1010.2
2015-May-21 23:33N 37°19' E 025°03'1010.5
2015-May-21 22:33N 37°16' E 025°16'1010.1
2015-May-21 21:33N 37°14' E 025°28'10 9.5
2015-May-21 20:33N 37°10' E 025°39'12 1.1
2015-May-21 09:28N 37°02' E 025°51'18 1.5
2015-May-20 21:33N 36°53' E 026°10'9 8.7
2015-May-20 20:33N 36°49' E 026°21'8 8.3
2015-May-20 19:32N 36°46' E 026°30'9 8.4
2015-May-20 18:27N 36°42' E 026°41'  
Track history (hours):
 
Tides and Currents Weather Stations Pressure Air Temp Water Temp Dewpoint Dewpoint Depression Visibility Wind Speed Wind Dir Waves Ship Positions

Mariq

Last reported at 2015-May-28 00:33 UTC. Time now 2015-May-28 01:46 UTC.
Position N 37°17' E 025°52'.

Length 57 m.

Type: Tanker. MMSI: 239758424.

Date/timePositionNaut miles runAvg speedWind from/ knotsBaromVisibWave heightAir tempDewpointWater temp
2015-May-28 00:33N 37°17' E 025°52'9 9.1
2015-May-27 23:33N 37°18' E 025°41'9 9.3
2015-May-27 22:33N 37°19' E 025°29'9 9.0
2015-May-27 21:34N 37°19' E 025°18'9 9.3
2015-May-27 20:33N 37°20' E 025°06'10 9.5
2015-May-27 19:33N 37°21' E 024°54'8 0.4
2015-May-27 01:33N 37°23' E 024°45'1110.8
2015-May-27 00:33N 37°21' E 024°58'1110.6
2015-May-26 23:33N 37°21' E 025°11'1110.9
2015-May-26 22:33N 37°22' E 025°25'1110.6
2015-May-26 21:33N 37°22' E 025°38'1010.5
2015-May-26 20:33N 37°22' E 025°51'1010.2
2015-May-26 19:33N 37°23' E 026°04'12 0.4
2015-May-25 17:33N 37°11' E 026°06'10 9.9
2015-May-25 16:32N 37°06' E 025°55'10 9.7
2015-May-25 15:29N 37°01' E 025°44'9 9.6
2015-May-25 14:32N 36°56' E 025°34'6 0.6
2015-May-25 04:20N 36°53' E 025°28'7 8.9
2015-May-25 03:33N 36°54' E 025°19'27 8.5
2015-May-25 00:21N 37°02' E 024°46'45 8.9
2015-May-24 19:15N 37°35' E 024°08'37 1.5
2015-May-23 19:03N 37°02' E 024°28'610.3
2015-May-23 18:30N 36°57' E 024°32'44 1.2
2015-May-22 04:24N 37°37' E 024°08'31 9.8
2015-May-22 01:12N 37°24' E 024°44'610.1
2015-May-22 00:34N 37°22' E 024°51'1010.2
2015-May-21 23:33N 37°19' E 025°03'1010.5
2015-May-21 22:33N 37°16' E 025°16'1010.1
2015-May-21 21:33N 37°14' E 025°28'10 9.5
2015-May-21 20:33N 37°10' E 025°39'12 1.1
2015-May-21 09:28N 37°02' E 025°51'18 1.5
2015-May-20 21:33N 36°53' E 026°10'9 8.7
2015-May-20 20:33N 36°49' E 026°21'8 8.3
2015-May-20 19:32N 36°46' E 026°30'9 8.4
2015-May-20 18:27N 36°42' E 026°41'  

Dump ship's entire track history